Time;durP1;ratioP1;P1;durP2;ratioP2;P2;SDS_P1;SDS_P2;PMS_P1;PMS_P2;Temp;Humidity;BMP_temperature;BMP_pressure;BME280_temperature;BME280_humidity;BME280_pressure;Samples;Min_cycle;Max_cycle;Signal;HPM_P1;HPM_P2
2021/08/25 00:00:36;;;;;;;19.48;14.73;;;11.10;99.90;;;;;;4190895;28;20468;-75
2021/08/25 00:02:36;;;;;;;17.08;14.05;;;11.10;99.90;;;;;;4207675;28;20032;-75
2021/08/25 00:04:40;;;;;;;17.20;13.48;;;11.10;99.90;;;;;;4212216;28;20032;-75
2021/08/25 00:06:41;;;;;;;17.77;13.20;;;11.10;99.90;;;;;;4194579;28;20052;-75
2021/08/25 00:08:42;;;;;;;19.02;14.77;;;11.00;99.90;;;;;;4211370;28;20040;-76
2021/08/25 00:10:43;;;;;;;20.90;15.35;;;11.00;99.90;;;;;;4193888;28;20040;-75
2021/08/25 00:12:43;;;;;;;19.40;15.80;;;11.00;99.90;;;;;;4212866;28;20085;-76
2021/08/25 00:14:44;;;;;;;15.95;13.73;;;11.00;99.90;;;;;;4193872;28;20032;-75
2021/08/25 00:16:45;;;;;;;15.55;13.32;;;11.00;99.90;;;;;;4187718;28;20048;-76
2021/08/25 00:18:45;;;;;;;20.23;15.02;;;10.90;99.90;;;;;;4194161;28;20078;-75
2021/08/25 00:20:46;;;;;;;19.80;15.13;;;10.90;99.90;;;;;;4211870;28;20043;-75
2021/08/25 00:22:46;;;;;;;24.65;17.27;;;10.80;99.90;;;;;;4206609;28;20027;-75
2021/08/25 00:24:47;;;;;;;21.73;17.90;;;10.90;99.90;;;;;;4203690;28;20032;-75
2021/08/25 00:26:48;;;;;;;21.35;15.32;;;10.90;99.90;;;;;;4192345;28;20031;-75
2021/08/25 00:28:49;;;;;;;19.33;15.73;;;10.90;99.90;;;;;;4188591;28;20029;-75
2021/08/25 00:30:50;;;;;;;26.27;16.48;;;10.80;99.90;;;;;;4211169;28;20035;-76
2021/08/25 00:32:50;;;;;;;21.60;16.52;;;10.80;99.90;;;;;;4211530;28;20374;-75
2021/08/25 00:34:51;;;;;;;20.83;16.77;;;10.80;99.90;;;;;;4194353;28;20037;-75
2021/08/25 00:36:51;;;;;;;25.73;18.60;;;10.80;99.90;;;;;;4208625;28;20024;-76
2021/08/25 00:38:52;;;;;;;23.23;18.73;;;10.80;99.90;;;;;;4211162;28;20212;-76
2021/08/25 00:40:52;;;;;;;25.58;18.73;;;10.80;99.90;;;;;;4209012;28;20107;-76
2021/08/25 00:42:53;;;;;;;26.20;20.70;;;11.90;99.90;;;;;;4212423;28;20520;-76
2021/08/25 00:44:53;;;;;;;23.08;19.52;;;10.90;99.90;;;;;;4209035;28;20052;-76
2021/08/25 00:46:54;;;;;;;25.92;20.02;;;10.90;99.90;;;;;;4206927;28;20036;-76
2021/08/25 00:48:55;;;;;;;24.05;21.02;;;10.90;99.90;;;;;;4209051;28;20089;-76
2021/08/25 00:50:55;;;;;;;24.35;21.70;;;10.90;99.90;;;;;;4191180;28;20463;-76
2021/08/25 00:52:56;;;;;;;33.45;23.98;;;10.90;99.90;;;;;;4210663;28;20085;-76
2021/08/25 00:55:01;;;;;;;30.90;23.27;;;10.90;99.90;;;;;;4189230;28;20548;-76
2021/08/25 00:57:03;;;;;;;31.77;23.25;;;10.90;99.90;;;;;;4208935;28;20444;-76
2021/08/25 00:59:05;;;;;;;31.35;23.63;;;10.90;99.90;;;;;;4190449;28;20254;-76
2021/08/25 01:01:11;;;;;;;30.35;24.30;;;10.90;99.90;;;;;;4192178;28;20025;-76
2021/08/25 01:03:18;;;;;;;29.83;23.67;;;11.00;99.90;;;;;;4191090;28;20084;-76
2021/08/25 01:05:19;;;;;;;35.22;25.33;;;11.00;99.90;;;;;;4209960;28;20024;-76
2021/08/25 01:07:23;;;;;;;32.88;24.30;;;11.00;99.90;;;;;;4208642;28;20047;-76
2021/08/25 01:09:24;;;;;;;34.35;23.98;;;10.90;99.90;;;;;;4210309;28;20043;-76
2021/08/25 01:11:25;;;;;;;27.77;22.05;;;10.90;99.90;;;;;;4209445;28;20028;-76
2021/08/25 01:13:25;;;;;;;31.60;23.98;;;10.90;99.90;;;;;;4209716;28;20474;-76
2021/08/25 01:15:30;;;;;;;35.75;26.15;;;10.90;99.90;;;;;;4212955;28;20039;-76
2021/08/25 01:17:31;;;;;;;31.45;23.92;;;10.80;99.90;;;;;;4193948;28;20045;-76
2021/08/25 01:19:41;;;;;;;34.13;28.63;;;10.80;99.90;;;;;;4195126;28;20138;-76
2021/08/25 01:21:45;;;;;;;36.83;27.38;;;10.70;99.90;;;;;;4212439;28;20058;-76
2021/08/25 01:23:46;;;;;;;30.13;23.38;;;10.80;99.90;;;;;;4210729;28;20577;-76
2021/08/25 01:25:53;;;;;;;33.05;25.67;;;10.80;99.90;;;;;;4212778;28;20038;-76
2021/08/25 01:28:02;;;;;;;35.22;24.55;;;10.70;99.90;;;;;;4212292;28;20586;-76
2021/08/25 01:30:05;;;;;;;38.85;29.00;;;10.70;99.90;;;;;;4214113;28;20074;-75
2021/08/25 01:32:06;;;;;;;42.88;29.35;;;10.60;99.90;;;;;;4212854;28;20123;-75
2021/08/25 01:34:07;;;;;;;42.83;31.50;;;10.70;99.90;;;;;;4214683;28;20051;-75
2021/08/25 01:36:20;;;;;;;40.38;29.55;;;10.80;99.90;;;;;;4213276;28;20035;-76
2021/08/25 01:38:37;;;;;;;40.95;29.85;;;10.80;99.90;;;;;;4188199;28;20128;-76
2021/08/25 01:40:37;;;;;;;42.17;28.88;;;10.80;99.90;;;;;;4209011;28;20162;-75
2021/08/25 01:42:38;;;;;;;36.42;28.42;;;10.70;99.90;;;;;;4189230;28;20087;-76
2021/08/25 01:44:38;;;;;;;47.88;30.17;;;10.70;99.90;;;;;;4213459;28;20097;-76
2021/08/25 01:46:41;;;;;;;40.08;28.63;;;10.70;99.90;;;;;;4191410;28;20174;-76
2021/08/25 01:48:41;;;;;;;41.57;30.60;;;10.70;99.90;;;;;;4213662;28;20044;-76
2021/08/25 01:50:42;;;;;;;44.15;31.85;;;10.70;99.90;;;;;;4209446;28;20048;-75
2021/08/25 01:52:42;;;;;;;47.95;33.47;;;10.70;99.90;;;;;;4196359;28;20040;-76
2021/08/25 01:54:46;;;;;;;47.45;31.55;;;10.70;99.90;;;;;;4209060;28;20036;-75
2021/08/25 01:56:46;;;;;;;51.00;34.72;;;10.80;99.90;;;;;;4214009;28;20032;-76
2021/08/25 01:58:47;;;;;;;41.78;29.55;;;10.90;99.90;;;;;;4212135;28;20592;-76
2021/08/25 02:00:47;;;;;;;48.42;34.95;;;10.90;99.90;;;;;;4208910;28;20047;-76
2021/08/25 02:02:48;;;;;;;54.70;35.63;;;10.80;99.90;;;;;;4210265;28;20055;-76
2021/08/25 02:04:49;;;;;;;46.17;33.15;;;10.80;99.90;;;;;;4209499;28;20029;-76
2021/08/25 02:06:50;;;;;;;43.60;33.30;;;10.80;99.90;;;;;;4211167;28;20054;-75
2021/08/25 02:08:50;;;;;;;48.45;34.00;;;10.80;99.90;;;;;;4191785;28;20067;-75
2021/08/25 02:10:51;;;;;;;44.55;32.40;;;10.80;99.90;;;;;;4212106;28;20503;-76
2021/08/25 02:12:52;;;;;;;53.22;35.10;;;10.70;99.90;;;;;;4189888;28;20044;-75
2021/08/25 02:14:52;;;;;;;48.75;32.00;;;10.70;99.90;;;;;;4212108;28;20036;-75
2021/08/25 02:16:53;;;;;;;41.90;30.90;;;10.70;99.90;;;;;;4208604;28;20025;-75
2021/08/25 02:18:54;;;;;;;49.88;33.53;;;10.60;99.90;;;;;;4211773;28;20038;-75
2021/08/25 02:20:54;;;;;;;59.25;32.88;;;10.60;99.90;;;;;;4212930;28;20124;-76
2021/08/25 02:22:55;;;;;;;54.10;34.67;;;10.60;99.90;;;;;;4212214;28;20503;-75
2021/08/25 02:24:55;;;;;;;42.72;29.83;;;10.60;99.90;;;;;;4205605;28;20035;-76
2021/08/25 02:26:56;;;;;;;50.80;33.13;;;10.60;99.90;;;;;;4191783;28;20033;-75
2021/08/25 02:28:56;;;;;;;61.10;37.08;;;10.50;99.90;;;;;;4206761;28;20040;-75
2021/08/25 02:30:57;;;;;;;43.50;30.00;;;10.50;99.90;;;;;;4212907;28;20028;-75
2021/08/25 02:32:58;;;;;;;42.13;30.65;;;10.40;99.90;;;;;;4190145;28;20504;-76
2021/08/25 02:34:59;;;;;;;61.15;36.08;;;10.40;99.90;;;;;;4193975;28;20032;-76
2021/08/25 02:37:00;;;;;;;50.10;31.35;;;10.40;99.90;;;;;;4209910;28;20074;-76
2021/08/25 02:39:01;;;;;;;41.22;28.45;;;10.30;99.90;;;;;;4195904;28;20033;-76
2021/08/25 02:41:06;;;;;;;47.00;31.77;;;10.30;99.90;;;;;;4210201;28;20407;-76
2021/08/25 02:43:07;;;;;;;39.60;27.23;;;10.20;99.90;;;;;;4195674;28;20431;-75
2021/08/25 02:45:08;;;;;;;49.30;34.22;;;10.20;99.90;;;;;;4192027;28;20025;-75
2021/08/25 02:47:12;;;;;;;54.03;37.17;;;10.10;99.90;;;;;;4195472;28;20036;-77
2021/08/25 02:49:12;;;;;;;66.82;40.63;;;10.10;99.90;;;;;;4189123;28;20406;-75
2021/08/25 02:51:13;;;;;;;59.90;37.70;;;10.20;99.90;;;;;;4189758;28;20082;-76
2021/08/25 02:53:16;;;;;;;56.38;36.30;;;10.20;99.90;;;;;;4194446;28;20040;-76
2021/08/25 02:55:17;;;;;;;47.50;32.85;;;10.20;99.90;;;;;;4197312;28;20078;-75
2021/08/25 02:57:18;;;;;;;56.85;35.90;;;10.20;99.90;;;;;;4195578;28;20453;-75
2021/08/25 02:59:18;;;;;;;51.45;35.88;;;10.20;99.90;;;;;;4190966;28;20037;-75
2021/08/25 03:01:19;;;;;;;66.18;36.63;;;10.20;99.90;;;;;;4191596;28;20060;-76
2021/08/25 03:03:20;;;;;;;55.63;37.50;;;10.30;99.90;;;;;;4193731;28;20028;-75
2021/08/25 03:05:20;;;;;;;54.45;36.92;;;10.30;99.90;;;;;;4194124;28;20159;-76
2021/08/25 03:07:21;;;;;;;56.47;37.47;;;10.30;99.90;;;;;;4193604;28;20067;-75
2021/08/25 03:09:22;;;;;;;47.42;33.92;;;10.30;99.90;;;;;;4194607;28;20110;-75
2021/08/25 03:11:22;;;;;;;55.78;36.03;;;10.30;99.90;;;;;;4196951;28;20029;-75
2021/08/25 03:13:23;;;;;;;56.42;36.67;;;10.30;99.90;;;;;;4195853;28;20037;-75
2021/08/25 03:15:24;;;;;;;61.33;40.60;;;10.30;99.90;;;;;;4196815;28;20051;-75
2021/08/25 03:17:24;;;;;;;67.70;39.92;;;10.30;99.90;;;;;;4195276;28;20353;-76
2021/08/25 03:19:25;;;;;;;61.55;38.83;;;10.40;99.90;;;;;;4195442;28;20105;-77
2021/08/25 03:21:26;;;;;;;55.88;38.95;;;10.40;99.90;;;;;;4194378;28;20045;-75
2021/08/25 03:23:26;;;;;;;58.30;37.00;;;10.40;99.90;;;;;;4195105;28;20040;-75
2021/08/25 03:25:27;;;;;;;52.33;36.92;;;10.40;99.90;;;;;;4191501;28;20191;-76
2021/08/25 03:27:27;;;;;;;48.55;34.53;;;10.40;99.90;;;;;;4187229;28;20961;-75
2021/08/25 03:29:28;;;;;;;54.50;34.90;;;10.40;99.90;;;;;;4191832;28;20120;-75
2021/08/25 03:31:29;;;;;;;54.60;35.47;;;10.40;99.90;;;;;;4192531;28;20487;-75
2021/08/25 03:33:30;;;;;;;53.30;33.55;;;10.50;99.90;;;;;;4194735;28;20492;-75
2021/08/25 03:35:30;;;;;;;51.33;33.80;;;10.50;99.90;;;;;;4189470;28;20091;-75
2021/08/25 03:37:31;;;;;;;51.90;33.05;;;10.40;99.90;;;;;;4194479;28;20048;-75
2021/08/25 03:39:32;;;;;;;48.08;31.88;;;10.40;99.90;;;;;;4191787;28;20036;-76
2021/08/25 03:41:33;;;;;;;45.33;29.90;;;10.10;99.90;;;;;;4195142;28;20545;-76
2021/08/25 03:43:34;;;;;;;49.47;32.53;;;10.40;99.90;;;;;;4201631;28;20097;-76
2021/08/25 03:45:35;;;;;;;49.97;29.27;;;10.30;99.90;;;;;;4212158;28;20032;-76
2021/08/25 03:47:35;;;;;;;42.78;28.70;;;10.20;99.90;;;;;;4192187;28;20535;-76
2021/08/25 03:49:36;;;;;;;45.25;32.70;;;10.20;99.90;;;;;;4212316;28;20075;-76
2021/08/25 03:51:37;;;;;;;51.85;31.17;;;10.10;99.90;;;;;;4193072;28;20797;-76
2021/08/25 03:53:38;;;;;;;45.60;32.50;;;10.10;99.90;;;;;;4209799;28;20052;-76
2021/08/25 03:55:38;;;;;;;47.83;31.48;;;10.10;99.90;;;;;;4205943;28;20387;-76
2021/08/25 03:57:39;;;;;;;47.38;31.08;;;10.00;99.90;;;;;;4209566;28;20037;-76
2021/08/25 03:59:40;;;;;;;44.67;31.42;;;10.00;99.90;;;;;;4190722;28;20501;-76
2021/08/25 04:01:41;;;;;;;44.63;31.05;;;10.00;99.90;;;;;;4208050;28;20074;-77
2021/08/25 04:03:42;;;;;;;56.92;34.70;;;9.90;99.90;;;;;;4208338;28;20036;-76
2021/08/25 04:05:42;;;;;;;52.05;34.90;;;9.90;99.90;;;;;;4190049;28;20116;-76
2021/08/25 04:07:43;;;;;;;46.78;30.88;;;9.90;99.90;;;;;;4209798;28;20483;-76
2021/08/25 04:09:44;;;;;;;51.53;32.83;;;9.80;99.90;;;;;;4210250;28;20028;-76
2021/08/25 04:11:44;;;;;;;40.75;28.58;;;9.80;99.90;;;;;;4211023;28;20028;-76
2021/08/25 04:13:45;;;;;;;46.47;30.65;;;9.80;99.90;;;;;;4191229;28;20041;-76
2021/08/25 04:15:46;;;;;;;52.47;33.25;;;9.70;99.90;;;;;;4194528;28;20032;-76
2021/08/25 04:17:46;;;;;;;58.47;33.58;;;9.70;99.90;;;;;;4206759;28;20024;-76
2021/08/25 04:19:47;;;;;;;53.33;31.98;;;9.60;99.90;;;;;;4209667;28;20039;-76
2021/08/25 04:21:47;;;;;;;50.92;32.38;;;9.70;99.90;;;;;;4212825;28;20386;-76
2021/08/25 04:23:48;;;;;;;50.70;32.88;;;9.70;99.90;;;;;;4192982;28;20040;-76
2021/08/25 04:25:49;;;;;;;51.65;31.83;;;9.70;99.90;;;;;;4212428;28;20084;-76
2021/08/25 04:27:49;;;;;;;50.03;30.73;;;9.80;99.90;;;;;;4210814;28;20685;-76
2021/08/25 04:29:50;;;;;;;49.05;32.35;;;9.80;99.90;;;;;;4186800;28;20039;-75
2021/08/25 04:31:51;;;;;;;50.20;30.55;;;9.80;99.90;;;;;;4193209;28;20036;-76
2021/08/25 04:33:51;;;;;;;46.55;29.77;;;9.70;99.90;;;;;;4205805;28;20036;-75
2021/08/25 04:35:52;;;;;;;47.72;28.90;;;9.80;99.90;;;;;;4212757;28;20098;-76
2021/08/25 04:37:53;;;;;;;41.20;28.92;;;9.80;99.90;;;;;;4189311;28;20052;-76
2021/08/25 04:39:53;;;;;;;47.47;29.20;;;9.80;99.90;;;;;;4210193;28;20042;-76
2021/08/25 04:41:54;;;;;;;52.05;33.60;;;9.70;99.90;;;;;;4189062;28;20403;-75
2021/08/25 04:43:56;;;;;;;50.95;31.58;;;9.80;99.90;;;;;;4211162;28;20040;-75
2021/08/25 04:45:57;;;;;;;43.43;30.73;;;9.80;99.90;;;;;;4208616;28;20055;-75
2021/08/25 04:47:58;;;;;;;43.15;30.27;;;9.80;99.90;;;;;;4193910;28;20555;-75
2021/08/25 04:49:59;;;;;;;44.42;30.95;;;9.80;99.90;;;;;;4209190;28;20024;-75
2021/08/25 04:52:00;;;;;;;44.63;30.77;;;9.80;99.90;;;;;;4207902;28;20032;-76
2021/08/25 04:54:01;;;;;;;44.78;30.77;;;9.90;99.90;;;;;;4205459;28;20505;-76
2021/08/25 04:56:01;;;;;;;44.70;32.75;;;9.90;99.90;;;;;;4190677;28;20082;-76
2021/08/25 04:58:06;;;;;;;45.08;32.22;;;9.90;99.90;;;;;;4205266;28;20051;-76
2021/08/25 05:00:07;;;;;;;43.15;31.48;;;10.00;99.90;;;;;;4186317;28;20037;-76
2021/08/25 05:02:08;;;;;;;40.50;29.23;;;10.00;99.90;;;;;;4191863;28;20031;-76
2021/08/25 05:04:08;;;;;;;44.30;31.52;;;10.10;99.90;;;;;;4211308;28;20055;-75
2021/08/25 05:06:10;;;;;;;45.30;32.90;;;10.10;99.90;;;;;;4193566;28;20028;-75
2021/08/25 05:08:11;;;;;;;42.38;30.50;;;10.00;99.90;;;;;;4212328;28;20047;-76
2021/08/25 05:10:12;;;;;;;38.20;29.92;;;10.00;99.90;;;;;;4209999;28;20146;-76
2021/08/25 05:12:15;;;;;;;46.22;32.60;;;10.00;99.90;;;;;;4207899;28;20051;-76
2021/08/25 05:14:16;;;;;;;44.15;31.20;;;10.00;99.90;;;;;;4206566;28;20029;-75
2021/08/25 05:16:17;;;;;;;39.33;29.33;;;10.10;99.90;;;;;;4208162;28;20123;-76
2021/08/25 05:18:17;;;;;;;40.08;28.92;;;10.10;99.90;;;;;;4207190;28;20040;-75
2021/08/25 05:20:18;;;;;;;46.05;31.27;;;10.10;99.90;;;;;;4184306;28;20036;-76
2021/08/25 05:22:18;;;;;;;40.50;30.83;;;10.20;99.90;;;;;;4211121;28;20024;-76
2021/08/25 05:24:20;;;;;;;44.42;30.92;;;10.20;99.90;;;;;;4206290;28;20033;-76
2021/08/25 05:26:20;;;;;;;40.80;31.63;;;10.30;99.90;;;;;;4192460;28;20058;-75
2021/08/25 05:28:21;;;;;;;42.75;30.90;;;10.30;99.90;;;;;;4192614;28;20178;-76
2021/08/25 05:30:21;;;;;;;41.22;30.63;;;10.40;99.90;;;;;;4209168;28;20044;-75
2021/08/25 05:32:22;;;;;;;39.92;31.50;;;10.30;99.90;;;;;;4191787;28;20056;-75
2021/08/25 05:34:23;;;;;;;38.20;29.48;;;10.40;99.90;;;;;;4210996;28;20040;-76
2021/08/25 05:36:23;;;;;;;43.42;31.38;;;10.50;99.90;;;;;;4208578;28;20468;-76
2021/08/25 05:38:24;;;;;;;39.00;30.33;;;10.50;99.90;;;;;;4202406;28;20486;-76
2021/08/25 05:40:24;;;;;;;43.20;30.65;;;10.20;99.90;;;;;;4186911;28;20037;-76
2021/08/25 05:42:25;;;;;;;42.97;31.58;;;10.60;99.90;;;;;;4209308;28;20405;-76
2021/08/25 05:44:25;;;;;;;46.85;33.67;;;10.90;99.90;;;;;;4187901;28;20045;-76
2021/08/25 05:46:26;;;;;;;46.80;34.22;;;10.60;99.90;;;;;;4205697;28;20147;-74
2021/08/25 05:48:26;;;;;;;50.90;35.50;;;10.70;99.90;;;;;;4209377;28;20123;-76
2021/08/25 05:50:27;;;;;;;52.10;36.10;;;10.70;99.90;;;;;;4210683;28;20059;-76
2021/08/25 05:52:28;;;;;;;45.05;32.33;;;10.70;99.90;;;;;;4208640;28;20483;-76
2021/08/25 05:54:28;;;;;;;42.83;29.15;;;10.70;99.90;;;;;;4185836;28;21157;-76
2021/08/25 05:56:29;;;;;;;49.65;33.05;;;10.70;99.90;;;;;;4209326;28;20036;-76
2021/08/25 05:58:29;;;;;;;44.80;31.40;;;10.70;99.90;;;;;;4202656;28;20122;-76
2021/08/25 06:00:30;;;;;;;40.13;30.60;;;10.70;99.90;;;;;;4210731;28;20040;-76
2021/08/25 06:02:31;;;;;;;40.50;31.67;;;10.80;99.90;;;;;;4209525;28;20039;-76
2021/08/25 06:04:31;;;;;;;40.72;31.60;;;10.80;99.90;;;;;;4213397;28;20090;-76
2021/08/25 06:06:34;;;;;;;43.47;32.58;;;10.90;99.90;;;;;;4194125;28;20044;-76
2021/08/25 06:08:35;;;;;;;41.17;30.92;;;10.90;99.90;;;;;;4210676;28;20040;-76
2021/08/25 06:10:35;;;;;;;46.22;32.03;;;11.00;99.90;;;;;;4194772;28;20056;-74
2021/08/25 06:12:36;;;;;;;48.35;34.15;;;11.20;99.90;;;;;;4212814;28;20039;-75
2021/08/25 06:14:38;;;;;;;50.33;34.67;;;11.10;99.90;;;;;;4206275;28;20028;-75
2021/08/25 06:16:39;;;;;;;53.17;35.05;;;11.20;99.90;;;;;;4207871;28;20036;-75
2021/08/25 06:18:39;;;;;;;53.15;36.38;;;11.30;99.90;;;;;;4206510;28;20411;-75
2021/08/25 06:20:40;;;;;;;50.63;37.08;;;11.40;99.90;;;;;;4213713;28;20028;-76
2021/08/25 06:22:41;;;;;;;51.25;36.15;;;11.40;99.90;;;;;;4212629;28;20108;-75
2021/08/25 06:24:41;;;;;;;53.08;36.90;;;11.50;99.90;;;;;;4214148;28;20029;-75
2021/08/25 06:26:42;;;;;;;53.38;38.97;;;11.60;99.90;;;;;;4208347;28;20032;-75
2021/08/25 06:28:43;;;;;;;60.03;38.80;;;11.60;99.90;;;;;;4196228;28;20098;-75
2021/08/25 06:30:44;;;;;;;56.92;38.33;;;11.70;99.90;;;;;;4191408;28;20040;-75
2021/08/25 06:32:44;;;;;;;52.33;36.63;;;11.80;99.90;;;;;;4212957;28;20031;-75
2021/08/25 06:34:45;;;;;;;56.55;38.60;;;11.90;99.90;;;;;;4209972;28;20032;-74
2021/08/25 06:36:46;;;;;;;56.25;37.90;;;11.90;99.90;;;;;;4191364;28;20463;-75
2021/08/25 06:38:46;;;;;;;58.25;40.00;;;11.90;99.90;;;;;;4212058;28;20079;-75
2021/08/25 06:40:47;;;;;;;52.47;39.03;;;12.00;99.90;;;;;;4188851;28;20127;-75
2021/08/25 06:42:47;;;;;;;56.70;37.95;;;11.40;99.90;;;;;;4212587;28;20048;-75
2021/08/25 06:44:48;;;;;;;53.25;38.70;;;12.10;99.90;;;;;;4205484;28;20166;-74
2021/08/25 06:46:49;;;;;;;53.75;38.85;;;12.20;99.90;;;;;;4212122;28;20040;-75
2021/08/25 06:48:50;;;;;;;57.38;37.40;;;12.20;99.90;;;;;;4208972;28;20038;-75
2021/08/25 06:50:51;;;;;;;54.05;37.90;;;12.30;99.90;;;;;;4193305;28;20036;-75
2021/08/25 06:52:52;;;;;;;56.67;38.50;;;12.30;99.90;;;;;;4208337;28;20468;-75
2021/08/25 06:54:52;;;;;;;52.95;36.92;;;12.40;99.90;;;;;;4211662;28;20047;-75
2021/08/25 06:56:53;;;;;;;53.90;37.35;;;12.50;99.90;;;;;;4195063;28;20105;-75
2021/08/25 06:58:54;;;;;;;52.45;37.92;;;12.60;99.90;;;;;;4196396;28;20048;-75
2021/08/25 07:00:56;;;;;;;52.72;37.33;;;12.60;99.90;;;;;;4207347;28;20036;-75
2021/08/25 07:02:56;;;;;;;51.65;37.03;;;12.70;99.90;;;;;;4213401;28;20028;-75
2021/08/25 07:04:57;;;;;;;55.70;42.85;;;12.80;99.90;;;;;;4203935;28;20435;-75
2021/08/25 07:06:58;;;;;;;50.45;38.25;;;12.80;99.90;;;;;;4213537;28;20398;-75
2021/08/25 07:08:59;;;;;;;52.55;38.15;;;12.90;99.90;;;;;;4205815;28;20066;-75
2021/08/25 07:10:59;;;;;;;45.88;36.10;;;13.00;99.90;;;;;;4212897;28;20040;-75
2021/08/25 07:13:01;;;;;;;43.45;33.55;;;13.00;99.90;;;;;;4211447;28;20143;-75
2021/08/25 07:15:02;;;;;;;50.25;35.38;;;13.10;99.90;;;;;;4190749;28;20063;-74
2021/08/25 07:17:03;;;;;;;43.90;35.15;;;13.10;99.90;;;;;;4208029;28;20088;-75
2021/08/25 07:19:04;;;;;;;45.25;33.85;;;13.20;99.90;;;;;;4213218;28;20032;-75
2021/08/25 07:21:06;;;;;;;37.75;31.48;;;13.20;99.90;;;;;;4189547;28;20078;-75
2021/08/25 07:23:07;;;;;;;48.00;34.10;;;13.40;99.90;;;;;;4194953;28;20024;-75
2021/08/25 07:25:09;;;;;;;36.70;28.52;;;13.50;99.90;;;;;;4208559;28;20478;-76
2021/08/25 07:27:09;;;;;;;39.92;29.92;;;13.60;99.90;;;;;;4213435;28;20044;-75
2021/08/25 07:29:10;;;;;;;40.63;30.52;;;13.60;99.90;;;;;;4209443;28;20057;-76
2021/08/25 07:31:12;;;;;;;39.72;31.30;;;13.80;99.90;;;;;;4211881;28;20028;-76
2021/08/25 07:33:14;;;;;;;36.78;28.25;;;13.80;99.90;;;;;;4209946;28;20024;-76
2021/08/25 07:35:15;;;;;;;32.28;28.83;;;13.90;99.90;;;;;;4190280;28;20029;-76
2021/08/25 07:37:15;;;;;;;35.28;28.30;;;14.00;99.90;;;;;;4210155;28;20036;-75
2021/08/25 07:39:16;;;;;;;34.95;27.95;;;14.10;99.90;;;;;;4188800;28;20032;-76
2021/08/25 07:41:17;;;;;;;32.90;27.67;;;14.10;99.90;;;;;;4212348;28;20104;-76
2021/08/25 07:43:17;;;;;;;30.38;24.55;;;14.30;99.90;;;;;;4207010;28;20040;-74
2021/08/25 07:45:18;;;;;;;30.15;26.50;;;14.30;99.90;;;;;;4211391;28;20036;-76
2021/08/25 07:47:18;;;;;;;39.35;25.70;;;14.40;99.90;;;;;;4190174;28;20033;-75
2021/08/25 07:49:19;;;;;;;30.83;24.67;;;14.50;99.90;;;;;;4210371;28;20036;-73
2021/08/25 07:51:20;;;;;;;32.78;26.92;;;14.60;99.90;;;;;;4210505;28;20028;-76
2021/08/25 07:53:21;;;;;;;29.90;25.23;;;14.70;99.90;;;;;;4192957;28;20103;-73
2021/08/25 07:55:21;;;;;;;34.42;24.85;;;14.80;99.90;;;;;;4209834;28;20426;-73
2021/08/25 07:57:23;;;;;;;30.15;25.40;;;14.90;99.90;;;;;;4208147;28;20067;-74
2021/08/25 07:59:23;;;;;;;28.77;23.48;;;15.00;99.90;;;;;;4209542;28;20085;-74
2021/08/25 08:01:24;;;;;;;26.52;23.90;;;15.20;99.90;;;;;;4193793;28;20573;-74
2021/08/25 08:03:24;;;;;;;22.20;19.95;;;15.30;99.90;;;;;;4192634;28;20056;-74
2021/08/25 08:05:25;;;;;;;26.13;20.63;;;15.40;99.90;;;;;;4210924;28;20483;-74
2021/08/25 08:07:26;;;;;;;19.95;17.83;;;15.50;99.90;;;;;;4211850;28;20032;-74
2021/08/25 08:09:26;;;;;;;20.13;18.13;;;15.70;99.90;;;;;;4211259;28;20395;-74
2021/08/25 08:11:27;;;;;;;21.83;19.60;;;15.80;99.90;;;;;;4211887;28;20535;-75
2021/08/25 08:13:29;;;;;;;22.33;20.10;;;15.90;99.90;;;;;;4213022;28;20441;-74
2021/08/25 08:15:30;;;;;;;21.95;18.38;;;16.00;99.90;;;;;;4187836;28;20476;-74
2021/08/25 08:17:32;;;;;;;20.77;18.40;;;16.10;99.90;;;;;;4191216;28;21550;-75
2021/08/25 08:19:33;;;;;;;21.77;19.30;;;16.10;99.90;;;;;;4206418;28;20034;-75
2021/08/25 08:21:34;;;;;;;21.80;17.98;;;16.30;99.90;;;;;;4193188;28;20029;-75
2021/08/25 08:23:35;;;;;;;19.65;17.52;;;16.30;99.90;;;;;;4206139;28;20585;-75
2021/08/25 08:25:35;;;;;;;19.35;17.33;;;16.40;99.90;;;;;;4212225;28;20161;-75
2021/08/25 08:27:36;;;;;;;18.65;16.85;;;16.50;99.90;;;;;;4206962;28;20032;-75
2021/08/25 08:29:36;;;;;;;18.15;16.15;;;16.70;99.90;;;;;;4212707;28;20043;-74
2021/08/25 08:31:37;;;;;;;18.75;16.95;;;16.50;99.90;;;;;;4210280;28;20041;-74
2021/08/25 08:33:39;;;;;;;17.85;16.00;;;16.90;99.90;;;;;;4211948;28;20161;-75
2021/08/25 08:35:39;;;;;;;18.92;17.02;;;17.00;99.90;;;;;;4207968;28;20040;-75
2021/08/25 08:37:40;;;;;;;18.45;16.55;;;17.10;99.90;;;;;;4205141;28;20035;-75
2021/08/25 08:39:40;;;;;;;16.77;15.00;;;17.20;99.90;;;;;;4193005;28;20024;-75
2021/08/25 08:41:41;;;;;;;17.17;15.35;;;17.30;99.90;;;;;;4204988;28;20037;-75
2021/08/25 08:43:44;;;;;;;22.20;15.18;;;17.40;99.90;;;;;;4210138;28;20566;-75
2021/08/25 08:45:45;;;;;;;18.30;16.35;;;;;;;;;;4205360;28;20028;-75
2021/08/25 08:47:47;;;;;;;18.90;15.88;;;17.80;99.90;;;;;;4210344;28;20392;-74
2021/08/25 08:49:47;;;;;;;20.17;17.05;;;17.90;99.90;;;;;;4209074;28;20036;-75
2021/08/25 08:51:50;;;;;;;18.17;16.42;;;18.10;99.90;;;;;;4209323;28;20040;-75
2021/08/25 08:53:52;;;;;;;20.13;15.45;;;18.20;99.90;;;;;;4190738;28;20032;-75
2021/08/25 08:55:53;;;;;;;17.50;14.47;;;18.30;99.90;;;;;;4210467;28;20119;-75
2021/08/25 08:57:53;;;;;;;16.98;12.85;;;18.40;99.90;;;;;;4191387;28;20291;-76
2021/08/25 08:59:54;;;;;;;16.02;13.68;;;18.50;99.90;;;;;;4208843;28;20376;-76
2021/08/25 09:01:54;;;;;;;16.52;13.10;;;18.60;99.90;;;;;;4208901;28;20025;-74
2021/08/25 09:03:55;;;;;;;15.50;12.93;;;18.70;99.90;;;;;;4193224;28;20112;-74
2021/08/25 09:06:02;;;;;;;24.52;14.00;;;18.80;99.90;;;;;;4210160;28;20333;-75
2021/08/25 09:08:04;;;;;;;17.35;13.25;;;19.00;99.90;;;;;;4193027;28;20403;-75
2021/08/25 09:10:05;;;;;;;12.43;10.68;;;19.20;99.90;;;;;;4185687;28;20115;-76
2021/08/25 09:12:12;;;;;;;12.50;11.20;;;19.40;99.90;;;;;;4210663;28;20490;-75
2021/08/25 09:14:13;;;;;;;14.02;10.55;;;;;;;;;;4209276;28;20459;-75
2021/08/25 09:16:30;;;;;;;12.40;11.10;;;19.80;99.90;;;;;;4209260;28;20119;-76
2021/08/25 09:18:31;;;;;;;13.63;12.23;;;20.00;99.90;;;;;;4209141;28;20380;-75
2021/08/25 09:20:38;;;;;;;14.32;12.38;;;20.00;99.90;;;;;;4189726;28;20025;-75
2021/08/25 09:22:39;;;;;;;12.88;11.23;;;20.20;99.90;;;;;;4209126;28;20575;-75
2021/08/25 09:24:41;;;;;;;14.50;11.38;;;20.40;99.90;;;;;;4208947;28;20044;-75
2021/08/25 09:27:04;;;;;;;15.95;11.23;;;20.50;99.90;;;;;;4210272;28;20121;-76
2021/08/25 09:29:18;;;;;;;11.55;9.43;;;20.70;99.90;;;;;;4207931;28;20028;-75
2021/08/25 09:31:18;;;;;;;13.82;11.52;;;21.00;99.90;;;;;;4209643;28;20090;-75
2021/08/25 09:33:21;;;;;;;15.43;12.38;;;21.20;99.90;;;;;;4191970;28;20107;-75
2021/08/25 09:35:39;;;;;;;15.85;13.60;;;21.30;99.90;;;;;;4211621;28;20443;-76
2021/08/25 09:37:55;;;;;;;16.33;14.27;;;21.40;99.90;;;;;;4196822;28;20427;-76
2021/08/25 09:39:59;;;;;;;13.88;11.45;;;21.60;99.90;;;;;;4210222;28;20487;-76
2021/08/25 09:42:00;;;;;;;16.10;10.70;;;21.80;99.90;;;;;;4203141;28;20059;-77
2021/08/25 09:44:14;;;;;;;13.48;10.23;;;22.10;99.90;;;;;;4211513;28;20032;-76
2021/08/25 09:46:18;;;;;;;17.60;13.23;;;22.20;99.90;;;;;;4212293;28;20094;-76
2021/08/25 09:48:32;;;;;;;16.55;11.82;;;22.40;99.90;;;;;;4214575;28;20043;-75
2021/08/25 09:50:33;;;;;;;28.00;12.18;;;22.60;99.90;;;;;;4212880;28;20032;-75
2021/08/25 09:52:34;;;;;;;15.40;10.93;;;22.80;99.90;;;;;;4213860;28;20097;-76
2021/08/25 09:54:35;;;;;;;13.65;11.55;;;23.10;99.90;;;;;;4215204;28;20505;-77
2021/08/25 09:56:37;;;;;;;15.35;12.48;;;23.30;99.90;;;;;;4195159;28;20412;-76
2021/08/25 09:58:38;;;;;;;15.10;13.15;;;23.30;99.90;;;;;;4212349;28;20036;-76
2021/08/25 10:00:39;;;;;;;17.92;12.80;;;23.30;99.90;;;;;;4192395;28;20468;-77
2021/08/25 10:02:41;;;;;;;14.68;13.02;;;23.50;99.90;;;;;;4218139;28;20116;-77
2021/08/25 10:04:41;;;;;;;14.40;12.90;;;23.60;99.90;;;;;;4212232;28;20047;-76
2021/08/25 10:06:53;;;;;;;15.70;13.27;;;23.70;99.90;;;;;;4203597;28;20484;-75
2021/08/25 10:08:54;;;;;;;17.30;14.27;;;24.00;99.90;;;;;;4210739;28;20032;-76
2021/08/25 10:10:55;;;;;;;16.85;15.05;;;24.00;99.90;;;;;;4218725;28;20044;-74
2021/08/25 10:12:56;;;;;;;18.35;15.32;;;24.00;99.90;;;;;;4221059;28;20012;-75
2021/08/25 10:14:56;;;;;;;17.73;14.02;;;24.00;99.90;;;;;;4213603;28;20040;-77
2021/08/25 10:16:58;;;;;;;17.38;15.57;;;;;;;;;;4217058;28;20440;-76